sensor_id;sensor_type;location;lat;lon;timestamp;pressure;altitude;pressure_sealevel;temperature;humidity
31062;BME280;17724;53.546;9.974;2023-03-14T00:03:40;98785.81;;;11.99;99.15
31062;BME280;17724;53.546;9.974;2023-03-14T00:07:41;98775.31;;;11.79;100.00
31062;BME280;17724;53.546;9.974;2023-03-14T00:11:41;98791.28;;;11.68;100.00
31062;BME280;17724;53.546;9.974;2023-03-14T00:15:42;98812.38;;;11.73;100.00
31062;BME280;17724;53.546;9.974;2023-03-14T00:19:42;98805.28;;;11.49;100.00
31062;BME280;17724;53.546;9.974;2023-03-14T00:23:43;98805.13;;;11.54;100.00
31062;BME280;17724;53.546;9.974;2023-03-14T00:27:43;98800.63;;;11.58;100.00
31062;BME280;17724;53.546;9.974;2023-03-14T00:31:46;98784.84;;;11.73;100.00
31062;BME280;17724;53.546;9.974;2023-03-14T00:35:58;98769.81;;;11.79;99.81
31062;BME280;17724;53.546;9.974;2023-03-14T00:39:59;98761.97;;;11.86;99.04
31062;BME280;17724;53.546;9.974;2023-03-14T00:44:00;98761.16;;;11.86;98.90
31062;BME280;17724;53.546;9.974;2023-03-14T00:48:01;98745.75;;;11.62;100.00
31062;BME280;17724;53.546;9.974;2023-03-14T00:52:01;98744.84;;;11.75;99.61
31062;BME280;17724;53.546;9.974;2023-03-14T00:56:04;98756.69;;;11.76;98.73
31062;BME280;17724;53.546;9.974;2023-03-14T01:00:05;98753.75;;;11.72;98.53
31062;BME280;17724;53.546;9.974;2023-03-14T01:04:08;98760.06;;;11.73;98.86
31062;BME280;17724;53.546;9.974;2023-03-14T01:08:09;98767.88;;;11.79;98.68
31062;BME280;17724;53.546;9.974;2023-03-14T01:12:09;98765.69;;;11.90;97.56
31062;BME280;17724;53.546;9.974;2023-03-14T01:16:11;98767.00;;;11.93;97.27
31062;BME280;17724;53.546;9.974;2023-03-14T01:20:14;98779.94;;;11.92;97.86
31062;BME280;17724;53.546;9.974;2023-03-14T01:24:15;98766.25;;;11.78;98.04
31062;BME280;17724;53.546;9.974;2023-03-14T01:28:16;98776.03;;;11.84;97.81
31062;BME280;17724;53.546;9.974;2023-03-14T01:32:17;98744.13;;;11.83;97.74
31062;BME280;17724;53.546;9.974;2023-03-14T01:36:18;98739.63;;;11.96;95.57
31062;BME280;17724;53.546;9.974;2023-03-14T01:40:18;98714.03;;;11.96;95.41
31062;BME280;17724;53.546;9.974;2023-03-14T01:44:19;98704.16;;;11.95;96.92
31062;BME280;17724;53.546;9.974;2023-03-14T01:48:20;98696.22;;;11.93;97.56
31062;BME280;17724;53.546;9.974;2023-03-14T01:52:47;98689.78;;;11.75;99.28
31062;BME280;17724;53.546;9.974;2023-03-14T01:57:18;98688.66;;;11.76;99.21
31062;BME280;17724;53.546;9.974;2023-03-14T02:01:20;98711.25;;;11.65;100.00
31062;BME280;17724;53.546;9.974;2023-03-14T02:05:42;98705.75;;;11.65;100.00
31062;BME280;17724;53.546;9.974;2023-03-14T02:09:52;98697.03;;;11.63;100.00
31062;BME280;17724;53.546;9.974;2023-03-14T02:13:59;98666.69;;;11.54;100.00
31062;BME280;17724;53.546;9.974;2023-03-14T02:18:09;98649.22;;;11.58;100.00
31062;BME280;17724;53.546;9.974;2023-03-14T02:22:19;98634.16;;;11.56;100.00
31062;BME280;17724;53.546;9.974;2023-03-14T02:26:32;98639.22;;;11.63;99.34
31062;BME280;17724;53.546;9.974;2023-03-14T02:30:36;98648.63;;;11.70;98.81
31062;BME280;17724;53.546;9.974;2023-03-14T02:34:38;98651.25;;;11.44;99.12
31062;BME280;17724;53.546;9.974;2023-03-14T02:38:46;98634.94;;;11.48;99.76
31062;BME280;17724;53.546;9.974;2023-03-14T02:42:48;98645.41;;;11.37;99.46
31062;BME280;17724;53.546;9.974;2023-03-14T02:46:48;98634.03;;;11.30;100.00
31062;BME280;17724;53.546;9.974;2023-03-14T02:50:53;98654.97;;;11.40;100.00
31062;BME280;17724;53.546;9.974;2023-03-14T02:54:54;98653.69;;;11.37;100.00
31062;BME280;17724;53.546;9.974;2023-03-14T02:58:55;98660.22;;;11.50;100.00
31062;BME280;17724;53.546;9.974;2023-03-14T03:03:04;98660.84;;;11.47;100.00
31062;BME280;17724;53.546;9.974;2023-03-14T03:07:06;98660.47;;;11.40;100.00
31062;BME280;17724;53.546;9.974;2023-03-14T03:11:07;98641.75;;;11.50;100.00
31062;BME280;17724;53.546;9.974;2023-03-14T03:15:09;98639.41;;;11.35;100.00
31062;BME280;17724;53.546;9.974;2023-03-14T03:19:11;98641.34;;;11.34;100.00
31062;BME280;17724;53.546;9.974;2023-03-14T03:23:13;98637.19;;;11.46;100.00
31062;BME280;17724;53.546;9.974;2023-03-14T03:27:14;98623.09;;;11.47;100.00
31062;BME280;17724;53.546;9.974;2023-03-14T03:31:15;98606.63;;;11.56;99.55
31062;BME280;17724;53.546;9.974;2023-03-14T03:35:15;98619.44;;;11.60;99.50
31062;BME280;17724;53.546;9.974;2023-03-14T03:39:16;98613.81;;;11.66;98.90
31062;BME280;17724;53.546;9.974;2023-03-14T03:43:16;98614.91;;;11.65;98.98
31062;BME280;17724;53.546;9.974;2023-03-14T03:47:20;98598.72;;;11.63;98.40
31062;BME280;17724;53.546;9.974;2023-03-14T03:51:21;98599.19;;;11.56;98.92
31062;BME280;17724;53.546;9.974;2023-03-14T03:55:22;98606.81;;;11.59;98.41
31062;BME280;17724;53.546;9.974;2023-03-14T03:59:22;98605.63;;;11.52;98.75
31062;BME280;17724;53.546;9.974;2023-03-14T04:03:23;98605.16;;;11.50;99.26
31062;BME280;17724;53.546;9.974;2023-03-14T04:07:23;98588.16;;;11.56;98.68
31062;BME280;17724;53.546;9.974;2023-03-14T04:11:25;98594.97;;;11.50;98.80
31062;BME280;17724;53.546;9.974;2023-03-14T04:15:30;98589.63;;;11.54;98.26
31062;BME280;17724;53.546;9.974;2023-03-14T04:19:33;98581.19;;;11.50;98.53
31062;BME280;17724;53.546;9.974;2023-03-14T04:23:34;98584.09;;;11.45;98.44
31062;BME280;17724;53.546;9.974;2023-03-14T04:27:34;98585.22;;;11.53;97.91
31062;BME280;17724;53.546;9.974;2023-03-14T04:31:37;98560.44;;;11.44;98.32
31062;BME280;17724;53.546;9.974;2023-03-14T04:35:38;98568.72;;;11.53;97.89
31062;BME280;17724;53.546;9.974;2023-03-14T04:39:43;98566.94;;;11.48;97.82
31062;BME280;17724;53.546;9.974;2023-03-14T04:43:54;98565.78;;;11.41;97.75
31062;BME280;17724;53.546;9.974;2023-03-14T04:47:56;98569.06;;;11.51;97.02
31062;BME280;17724;53.546;9.974;2023-03-14T04:51:56;98572.25;;;11.45;97.09
31062;BME280;17724;53.546;9.974;2023-03-14T04:55:59;98562.75;;;11.51;96.86
31062;BME280;17724;53.546;9.974;2023-03-14T05:00:09;98540.84;;;11.37;96.92
31062;BME280;17724;53.546;9.974;2023-03-14T05:04:30;98543.13;;;11.44;96.64
31062;BME280;17724;53.546;9.974;2023-03-14T05:08:56;98548.19;;;11.59;96.27
31062;BME280;17724;53.546;9.974;2023-03-14T05:13:12;98550.47;;;11.57;95.99
31062;BME280;17724;53.546;9.974;2023-03-14T05:17:24;98563.56;;;11.60;97.04
31062;BME280;17724;53.546;9.974;2023-03-14T05:21:44;98561.56;;;11.03;100.00
31062;BME280;17724;53.546;9.974;2023-03-14T05:26:02;98549.94;;;10.53;100.00
31062;BME280;17724;53.546;9.974;2023-03-14T05:30:12;98558.19;;;10.53;100.00
31062;BME280;17724;53.546;9.974;2023-03-14T05:34:12;98550.50;;;10.41;100.00
31062;BME280;17724;53.546;9.974;2023-03-14T05:38:33;98548.84;;;10.54;100.00
31062;BME280;17724;53.546;9.974;2023-03-14T05:42:42;98559.09;;;10.62;100.00
31062;BME280;17724;53.546;9.974;2023-03-14T05:47:05;98541.69;;;10.53;100.00
31062;BME280;17724;53.546;9.974;2023-03-14T05:51:24;98550.38;;;10.69;100.00
31062;BME280;17724;53.546;9.974;2023-03-14T05:55:43;98533.69;;;10.65;100.00
31062;BME280;17724;53.546;9.974;2023-03-14T05:59:54;98522.97;;;10.55;100.00
31062;BME280;17724;53.546;9.974;2023-03-14T06:04:14;98527.63;;;10.77;100.00
31062;BME280;17724;53.546;9.974;2023-03-14T06:08:17;98523.06;;;10.72;100.00
31062;BME280;17724;53.546;9.974;2023-03-14T06:12:17;98521.13;;;10.73;100.00
31062;BME280;17724;53.546;9.974;2023-03-14T06:16:19;98521.41;;;10.63;100.00
31062;BME280;17724;53.546;9.974;2023-03-14T06:20:20;98529.94;;;10.61;100.00
31062;BME280;17724;53.546;9.974;2023-03-14T06:24:21;98523.34;;;10.62;100.00
31062;BME280;17724;53.546;9.974;2023-03-14T06:28:24;98534.72;;;10.47;100.00
31062;BME280;17724;53.546;9.974;2023-03-14T06:32:24;98531.97;;;10.47;100.00
31062;BME280;17724;53.546;9.974;2023-03-14T06:36:28;98541.09;;;10.56;100.00
31062;BME280;17724;53.546;9.974;2023-03-14T06:40:29;98559.38;;;10.60;100.00
31062;BME280;17724;53.546;9.974;2023-03-14T06:44:34;98555.34;;;10.58;100.00
31062;BME280;17724;53.546;9.974;2023-03-14T06:48:36;98568.03;;;10.76;100.00
31062;BME280;17724;53.546;9.974;2023-03-14T06:52:36;98565.25;;;10.68;100.00
31062;BME280;17724;53.546;9.974;2023-03-14T06:56:37;98573.69;;;10.71;100.00
31062;BME280;17724;53.546;9.974;2023-03-14T07:00:39;98582.50;;;10.59;100.00
31062;BME280;17724;53.546;9.974;2023-03-14T07:04:39;98572.16;;;10.65;100.00
31062;BME280;17724;53.546;9.974;2023-03-14T07:08:40;98590.13;;;10.63;100.00
31062;BME280;17724;53.546;9.974;2023-03-14T07:12:42;98577.75;;;10.74;100.00
31062;BME280;17724;53.546;9.974;2023-03-14T07:16:42;98601.75;;;10.82;100.00
31062;BME280;17724;53.546;9.974;2023-03-14T07:20:47;98598.84;;;10.87;99.86
31062;BME280;17724;53.546;9.974;2023-03-14T07:24:49;98601.94;;;10.85;100.00
31062;BME280;17724;53.546;9.974;2023-03-14T07:28:49;98600.97;;;10.68;100.00
31062;BME280;17724;53.546;9.974;2023-03-14T07:32:52;98602.88;;;10.58;100.00
31062;BME280;17724;53.546;9.974;2023-03-14T07:36:56;98596.91;;;10.65;100.00
31062;BME280;17724;53.546;9.974;2023-03-14T07:41:00;98598.81;;;10.78;100.00
31062;BME280;17724;53.546;9.974;2023-03-14T07:45:04;98602.03;;;10.80;100.00
31062;BME280;17724;53.546;9.974;2023-03-14T07:49:04;98605.47;;;10.86;100.00
31062;BME280;17724;53.546;9.974;2023-03-14T07:53:05;98611.69;;;11.00;100.00
31062;BME280;17724;53.546;9.974;2023-03-14T07:57:06;98595.97;;;10.92;100.00
31062;BME280;17724;53.546;9.974;2023-03-14T08:01:06;98614.69;;;10.81;100.00
31062;BME280;17724;53.546;9.974;2023-03-14T08:05:07;98613.28;;;10.93;100.00
31062;BME280;17724;53.546;9.974;2023-03-14T08:09:08;98613.34;;;11.01;99.72
31062;BME280;17724;53.546;9.974;2023-03-14T08:13:09;98606.91;;;11.06;98.96
31062;BME280;17724;53.546;9.974;2023-03-14T08:17:10;98604.75;;;11.25;98.59
31062;BME280;17724;53.546;9.974;2023-03-14T08:21:11;98605.25;;;11.36;97.31
31062;BME280;17724;53.546;9.974;2023-03-14T08:25:12;98591.13;;;11.29;98.01
31062;BME280;17724;53.546;9.974;2023-03-14T08:29:12;98594.34;;;11.22;97.66
31062;BME280;17724;53.546;9.974;2023-03-14T08:33:13;98592.41;;;11.23;98.44
31062;BME280;17724;53.546;9.974;2023-03-14T08:37:13;98586.91;;;11.23;98.64
31062;BME280;17724;53.546;9.974;2023-03-14T08:41:13;98584.81;;;11.28;98.58
31062;BME280;17724;53.546;9.974;2023-03-14T08:45:15;98596.63;;;11.29;98.43
31062;BME280;17724;53.546;9.974;2023-03-14T08:49:19;98591.38;;;11.41;97.96
31062;BME280;17724;53.546;9.974;2023-03-14T08:53:19;98600.56;;;11.37;98.11
31062;BME280;17724;53.546;9.974;2023-03-14T08:57:22;98596.78;;;11.24;98.74
31062;BME280;17724;53.546;9.974;2023-03-14T09:01:27;98606.03;;;11.28;99.81
31062;BME280;17724;53.546;9.974;2023-03-14T09:05:27;98586.50;;;11.38;100.00
31062;BME280;17724;53.546;9.974;2023-03-14T09:09:28;98589.69;;;11.31;100.00
31062;BME280;17724;53.546;9.974;2023-03-14T09:13:30;98588.41;;;10.98;100.00
31062;BME280;17724;53.546;9.974;2023-03-14T09:17:30;98542.72;;;10.88;100.00
31062;BME280;17724;53.546;9.974;2023-03-14T09:21:31;98590.06;;;11.07;100.00
31062;BME280;17724;53.546;9.974;2023-03-14T09:25:32;98594.75;;;11.07;100.00
31062;BME280;17724;53.546;9.974;2023-03-14T09:29:32;98587.34;;;11.16;100.00
31062;BME280;17724;53.546;9.974;2023-03-14T09:33:33;98602.56;;;11.14;100.00
31062;BME280;17724;53.546;9.974;2023-03-14T09:37:33;98612.63;;;11.18;100.00
31062;BME280;17724;53.546;9.974;2023-03-14T09:41:37;98610.31;;;11.12;100.00
31062;BME280;17724;53.546;9.974;2023-03-14T09:45:40;98609.31;;;11.07;100.00
31062;BME280;17724;53.546;9.974;2023-03-14T09:49:42;98610.53;;;10.93;100.00
31062;BME280;17724;53.546;9.974;2023-03-14T09:53:46;98623.41;;;10.83;100.00
31062;BME280;17724;53.546;9.974;2023-03-14T09:57:47;98723.72;;;10.08;100.00
31062;BME280;17724;53.546;9.974;2023-03-14T10:01:48;98729.31;;;9.90;100.00
31062;BME280;17724;53.546;9.974;2023-03-14T10:05:49;98754.69;;;9.54;100.00
31062;BME280;17724;53.546;9.974;2023-03-14T10:09:50;98764.00;;;9.53;100.00
31062;BME280;17724;53.546;9.974;2023-03-14T10:18:02;98787.56;;;9.40;100.00
31062;BME280;17724;53.546;9.974;2023-03-14T10:22:05;98787.03;;;8.86;100.00
31062;BME280;17724;53.546;9.974;2023-03-14T10:26:24;98806.19;;;8.68;100.00
31062;BME280;17724;53.546;9.974;2023-03-14T10:30:40;98836.25;;;8.54;100.00
31062;BME280;17724;53.546;9.974;2023-03-14T10:43:30;98915.47;;;7.87;100.00
31062;BME280;17724;53.546;9.974;2023-03-14T10:47:32;98947.53;;;7.81;100.00
31062;BME280;17724;53.546;9.974;2023-03-14T10:51:32;98964.38;;;7.59;100.00
31062;BME280;17724;53.546;9.974;2023-03-14T10:55:42;98985.72;;;7.08;100.00
31062;BME280;17724;53.546;9.974;2023-03-14T10:59:43;99006.97;;;7.26;100.00
31062;BME280;17724;53.546;9.974;2023-03-14T11:03:51;99037.56;;;7.28;100.00
31062;BME280;17724;53.546;9.974;2023-03-14T11:08:01;99043.19;;;6.82;100.00
31062;BME280;17724;53.546;9.974;2023-03-14T11:20:52;99084.97;;;6.73;99.21
31062;BME280;17724;53.546;9.974;2023-03-14T11:33:20;99146.19;;;6.51;98.20
31062;BME280;17724;53.546;9.974;2023-03-14T11:37:26;99171.31;;;6.58;97.18
31062;BME280;17724;53.546;9.974;2023-03-14T11:41:33;99186.84;;;6.58;96.30
31062;BME280;17724;53.546;9.974;2023-03-14T11:45:37;99204.88;;;6.49;94.61
31062;BME280;17724;53.546;9.974;2023-03-14T11:49:43;99197.81;;;6.73;92.83
31062;BME280;17724;53.546;9.974;2023-03-14T11:54:14;99202.75;;;7.07;92.44
31062;BME280;17724;53.546;9.974;2023-03-14T12:06:41;99223.22;;;7.20;85.01
31062;BME280;17724;53.546;9.974;2023-03-14T12:10:59;99245.91;;;6.89;84.74
31062;BME280;17724;53.546;9.974;2023-03-14T12:15:03;99249.44;;;6.90;85.86
31062;BME280;17724;53.546;9.974;2023-03-14T12:23:23;99280.91;;;7.08;83.20
31062;BME280;17724;53.546;9.974;2023-03-14T12:31:46;99306.06;;;7.15;83.73
31062;BME280;17724;53.546;9.974;2023-03-14T12:35:51;99306.63;;;7.48;84.70
31062;BME280;17724;53.546;9.974;2023-03-14T12:40:06;99310.97;;;7.49;83.79
31062;BME280;17724;53.546;9.974;2023-03-14T12:48:30;99319.75;;;7.40;83.14
31062;BME280;17724;53.546;9.974;2023-03-14T12:52:49;99325.47;;;7.44;81.51
31062;BME280;17724;53.546;9.974;2023-03-14T13:01:26;99376.34;;;7.45;83.39
31062;BME280;17724;53.546;9.974;2023-03-14T13:05:27;99389.22;;;7.34;86.75
31062;BME280;17724;53.546;9.974;2023-03-14T13:13:35;99394.81;;;6.82;93.90
31062;BME280;17724;53.546;9.974;2023-03-14T13:17:39;99405.84;;;7.12;92.49
31062;BME280;17724;53.546;9.974;2023-03-14T13:21:40;99433.63;;;6.84;89.56
31062;BME280;17724;53.546;9.974;2023-03-14T13:25:41;99426.88;;;7.07;85.06
31062;BME280;17724;53.546;9.974;2023-03-14T13:29:41;99468.81;;;7.53;78.29
31062;BME280;17724;53.546;9.974;2023-03-14T13:33:42;99486.03;;;7.38;69.00
31062;BME280;17724;53.546;9.974;2023-03-14T13:37:43;99504.66;;;7.47;62.96
31062;BME280;17724;53.546;9.974;2023-03-14T13:41:43;99526.06;;;7.75;61.02
31062;BME280;17724;53.546;9.974;2023-03-14T13:45:49;99547.94;;;7.80;56.31
31062;BME280;17724;53.546;9.974;2023-03-14T13:49:51;99536.19;;;7.75;55.39
31062;BME280;17724;53.546;9.974;2023-03-14T13:53:53;99534.25;;;7.85;57.90
31062;BME280;17724;53.546;9.974;2023-03-14T13:57:54;99542.78;;;8.09;58.24
31062;BME280;17724;53.546;9.974;2023-03-14T14:01:57;99547.66;;;7.82;57.55
31062;BME280;17724;53.546;9.974;2023-03-14T14:05:59;99549.69;;;7.29;56.27
31062;BME280;17724;53.546;9.974;2023-03-14T14:09:59;99601.56;;;7.66;60.96
31062;BME280;17724;53.546;9.974;2023-03-14T14:14:06;99591.09;;;7.53;62.81
31062;BME280;17724;53.546;9.974;2023-03-14T14:18:12;99603.22;;;7.72;64.87
31062;BME280;17724;53.546;9.974;2023-03-14T14:22:14;99618.34;;;7.90;63.89
31062;BME280;17724;53.546;9.974;2023-03-14T14:26:19;99632.56;;;7.87;56.79
31062;BME280;17724;53.546;9.974;2023-03-14T14:34:20;99639.00;;;7.60;55.62
31062;BME280;17724;53.546;9.974;2023-03-14T14:38:20;99660.91;;;7.65;54.73
31062;BME280;17724;53.546;9.974;2023-03-14T14:42:26;99673.69;;;8.12;56.96
31062;BME280;17724;53.546;9.974;2023-03-14T14:46:30;99690.34;;;7.96;53.12
31062;BME280;17724;53.546;9.974;2023-03-14T14:50:38;99685.06;;;7.79;52.92
31062;BME280;17724;53.546;9.974;2023-03-14T14:54:58;99710.50;;;7.74;50.05
31062;BME280;17724;53.546;9.974;2023-03-14T14:59:00;99728.66;;;7.96;50.31
31062;BME280;17724;53.546;9.974;2023-03-14T15:03:02;99750.50;;;7.85;49.73
31062;BME280;17724;53.546;9.974;2023-03-14T15:07:02;99753.22;;;7.85;51.97
31062;BME280;17724;53.546;9.974;2023-03-14T15:11:03;99734.00;;;7.23;52.87
31062;BME280;17724;53.546;9.974;2023-03-14T15:15:04;99746.09;;;7.37;52.93
31062;BME280;17724;53.546;9.974;2023-03-14T15:19:19;99791.81;;;7.09;53.17
31062;BME280;17724;53.546;9.974;2023-03-14T15:23:21;99781.03;;;6.93;55.07
31062;BME280;17724;53.546;9.974;2023-03-14T15:27:22;99779.53;;;7.07;57.67
31062;BME280;17724;53.546;9.974;2023-03-14T15:31:22;99781.41;;;7.38;59.75
31062;BME280;17724;53.546;9.974;2023-03-14T15:35:23;99796.59;;;7.24;57.36
31062;BME280;17724;53.546;9.974;2023-03-14T15:39:24;99792.53;;;7.64;60.23
31062;BME280;17724;53.546;9.974;2023-03-14T15:43:24;99821.72;;;7.53;55.97
31062;BME280;17724;53.546;9.974;2023-03-14T15:47:25;99858.03;;;7.44;55.49
31062;BME280;17724;53.546;9.974;2023-03-14T15:51:27;99862.69;;;7.43;54.67
31062;BME280;17724;53.546;9.974;2023-03-14T15:55:28;99874.00;;;7.25;54.28
31062;BME280;17724;53.546;9.974;2023-03-14T15:59:28;99870.78;;;7.65;57.78
31062;BME280;17724;53.546;9.974;2023-03-14T16:03:29;99881.03;;;7.15;53.51
31062;BME280;17724;53.546;9.974;2023-03-14T16:07:29;99877.56;;;7.57;55.84
31062;BME280;17724;53.546;9.974;2023-03-14T16:11:30;99896.03;;;7.13;53.73
31062;BME280;17724;53.546;9.974;2023-03-14T16:15:30;99913.06;;;7.47;54.20
31062;BME280;17724;53.546;9.974;2023-03-14T16:19:31;99932.25;;;7.52;52.76
31062;BME280;17724;53.546;9.974;2023-03-14T16:23:33;99941.66;;;7.34;51.67
31062;BME280;17724;53.546;9.974;2023-03-14T16:27:33;99937.50;;;7.05;52.37
31062;BME280;17724;53.546;9.974;2023-03-14T16:31:34;99952.94;;;7.16;53.78
31062;BME280;17724;53.546;9.974;2023-03-14T16:35:38;99957.41;;;7.00;54.08
31062;BME280;17724;53.546;9.974;2023-03-14T16:39:38;99974.31;;;6.97;55.14
31062;BME280;17724;53.546;9.974;2023-03-14T16:43:39;99970.78;;;6.75;53.97
31062;BME280;17724;53.546;9.974;2023-03-14T16:47:40;99995.97;;;6.60;54.32
31062;BME280;17724;53.546;9.974;2023-03-14T16:51:43;99957.41;;;6.56;55.09
31062;BME280;17724;53.546;9.974;2023-03-14T16:55:44;100003.63;;;6.80;54.66
31062;BME280;17724;53.546;9.974;2023-03-14T16:59:45;100005.59;;;6.46;54.25
31062;BME280;17724;53.546;9.974;2023-03-14T17:03:47;100021.41;;;6.44;53.56
31062;BME280;17724;53.546;9.974;2023-03-14T17:07:48;100040.66;;;6.71;53.55
31062;BME280;17724;53.546;9.974;2023-03-14T17:11:48;100043.97;;;6.73;54.36
31062;BME280;17724;53.546;9.974;2023-03-14T17:15:52;100057.28;;;6.69;54.85
31062;BME280;17724;53.546;9.974;2023-03-14T17:19:53;100070.09;;;6.85;55.01
31062;BME280;17724;53.546;9.974;2023-03-14T17:23:53;100080.03;;;6.91;55.27
31062;BME280;17724;53.546;9.974;2023-03-14T17:27:54;100097.53;;;6.57;54.68
31062;BME280;17724;53.546;9.974;2023-03-14T17:31:54;100089.66;;;6.77;56.29
31062;BME280;17724;53.546;9.974;2023-03-14T17:35:55;100111.69;;;6.54;57.44
31062;BME280;17724;53.546;9.974;2023-03-14T17:39:55;100115.66;;;6.46;57.91
31062;BME280;17724;53.546;9.974;2023-03-14T17:44:00;100125.50;;;6.30;57.96
31062;BME280;17724;53.546;9.974;2023-03-14T17:48:01;100131.25;;;6.62;60.74
31062;BME280;17724;53.546;9.974;2023-03-14T17:52:04;100132.66;;;6.48;59.89
31062;BME280;17724;53.546;9.974;2023-03-14T17:56:05;100140.34;;;6.51;61.87
31062;BME280;17724;53.546;9.974;2023-03-14T18:00:06;100156.75;;;6.68;60.32
31062;BME280;17724;53.546;9.974;2023-03-14T18:04:11;100170.16;;;6.53;59.88
31062;BME280;17724;53.546;9.974;2023-03-14T18:08:14;100179.16;;;6.70;62.95
31062;BME280;17724;53.546;9.974;2023-03-14T18:12:14;100184.13;;;6.39;59.85
31062;BME280;17724;53.546;9.974;2023-03-14T18:16:15;100193.06;;;6.35;60.80
31062;BME280;17724;53.546;9.974;2023-03-14T18:20:16;100219.09;;;6.26;61.10
31062;BME280;17724;53.546;9.974;2023-03-14T18:24:17;100211.06;;;6.19;62.25
31062;BME280;17724;53.546;9.974;2023-03-14T18:28:18;100208.66;;;6.23;65.17
31062;BME280;17724;53.546;9.974;2023-03-14T18:32:20;100229.56;;;6.17;66.32
31062;BME280;17724;53.546;9.974;2023-03-14T18:36:23;100246.69;;;6.12;67.57
31062;BME280;17724;53.546;9.974;2023-03-14T18:40:25;100251.69;;;6.04;69.02
31062;BME280;17724;53.546;9.974;2023-03-14T18:44:25;100259.44;;;5.72;71.30
31062;BME280;17724;53.546;9.974;2023-03-14T18:48:26;100260.53;;;5.59;75.34
31062;BME280;17724;53.546;9.974;2023-03-14T18:52:26;100264.31;;;5.93;77.12
31062;BME280;17724;53.546;9.974;2023-03-14T18:56:28;100264.06;;;5.83;75.39
31062;BME280;17724;53.546;9.974;2023-03-14T19:00:28;100281.28;;;5.83;74.71
31062;BME280;17724;53.546;9.974;2023-03-14T19:04:29;100291.22;;;5.66;75.23
31062;BME280;17724;53.546;9.974;2023-03-14T19:08:30;100303.69;;;5.62;72.68
31062;BME280;17724;53.546;9.974;2023-03-14T19:12:33;100298.84;;;5.64;74.99
31062;BME280;17724;53.546;9.974;2023-03-14T19:16:34;100310.56;;;5.76;76.27
31062;BME280;17724;53.546;9.974;2023-03-14T19:20:36;100310.31;;;5.66;77.43
31062;BME280;17724;53.546;9.974;2023-03-14T19:24:36;100311.28;;;5.72;80.25
31062;BME280;17724;53.546;9.974;2023-03-14T19:28:37;100313.66;;;5.80;79.19
31062;BME280;17724;53.546;9.974;2023-03-14T19:32:37;100327.03;;;5.46;78.34
31062;BME280;17724;53.546;9.974;2023-03-14T19:36:38;100336.41;;;5.50;80.92
31062;BME280;17724;53.546;9.974;2023-03-14T19:40:40;100337.31;;;5.09;79.60
31062;BME280;17724;53.546;9.974;2023-03-14T19:44:40;100342.69;;;5.27;80.33
31062;BME280;17724;53.546;9.974;2023-03-14T19:48:42;100341.66;;;4.38;80.52
31062;BME280;17724;53.546;9.974;2023-03-14T19:52:44;100357.19;;;4.19;81.70
31062;BME280;17724;53.546;9.974;2023-03-14T19:56:49;100364.06;;;4.40;83.31
31062;BME280;17724;53.546;9.974;2023-03-14T20:00:50;100352.34;;;4.69;82.81
31062;BME280;17724;53.546;9.974;2023-03-14T20:04:51;100385.72;;;4.83;83.01
31062;BME280;17724;53.546;9.974;2023-03-14T20:08:53;100397.09;;;5.34;84.29
31062;BME280;17724;53.546;9.974;2023-03-14T20:12:54;100415.69;;;5.25;81.97
31062;BME280;17724;53.546;9.974;2023-03-14T20:16:54;100407.25;;;5.15;81.69
31062;BME280;17724;53.546;9.974;2023-03-14T20:20:55;100428.91;;;5.40;82.00
31062;BME280;17724;53.546;9.974;2023-03-14T20:24:55;100449.81;;;5.16;84.06
31062;BME280;17724;53.546;9.974;2023-03-14T20:28:56;100461.22;;;4.58;88.04
31062;BME280;17724;53.546;9.974;2023-03-14T20:32:56;100474.47;;;4.54;90.20
31062;BME280;17724;53.546;9.974;2023-03-14T20:36:57;100450.97;;;4.60;91.19
31062;BME280;17724;53.546;9.974;2023-03-14T20:40:58;100473.16;;;4.93;91.14
31062;BME280;17724;53.546;9.974;2023-03-14T20:44:59;100467.56;;;3.90;94.93
31062;BME280;17724;53.546;9.974;2023-03-14T20:49:00;100460.81;;;3.42;99.44
31062;BME280;17724;53.546;9.974;2023-03-14T20:53:01;100478.25;;;3.91;100.00
31062;BME280;17724;53.546;9.974;2023-03-14T20:57:02;100479.78;;;3.81;100.00
31062;BME280;17724;53.546;9.974;2023-03-14T21:01:02;100490.19;;;4.34;100.00
31062;BME280;17724;53.546;9.974;2023-03-14T21:05:04;100486.38;;;4.16;97.96
31062;BME280;17724;53.546;9.974;2023-03-14T21:09:05;100479.25;;;3.72;97.76
31062;BME280;17724;53.546;9.974;2023-03-14T21:13:06;100487.59;;;3.70;98.19
31062;BME280;17724;53.546;9.974;2023-03-14T21:17:06;100503.75;;;3.34;98.63
31062;BME280;17724;53.546;9.974;2023-03-14T21:21:07;100501.19;;;3.39;100.00
31062;BME280;17724;53.546;9.974;2023-03-14T21:25:07;100510.69;;;3.86;100.00
31062;BME280;17724;53.546;9.974;2023-03-14T21:29:08;100519.72;;;3.17;100.00
31062;BME280;17724;53.546;9.974;2023-03-14T21:33:08;100526.41;;;3.59;100.00
31062;BME280;17724;53.546;9.974;2023-03-14T21:37:09;100530.19;;;3.13;100.00
31062;BME280;17724;53.546;9.974;2023-03-14T21:41:10;100537.66;;;3.63;100.00
31062;BME280;17724;53.546;9.974;2023-03-14T21:45:11;100552.34;;;3.87;100.00
31062;BME280;17724;53.546;9.974;2023-03-14T21:49:15;100553.34;;;3.67;100.00
31062;BME280;17724;53.546;9.974;2023-03-14T21:53:19;100553.19;;;3.56;100.00
31062;BME280;17724;53.546;9.974;2023-03-14T21:57:20;100561.63;;;3.41;100.00
31062;BME280;17724;53.546;9.974;2023-03-14T22:01:20;100545.75;;;3.38;100.00
31062;BME280;17724;53.546;9.974;2023-03-14T22:05:24;100563.03;;;3.12;100.00
31062;BME280;17724;53.546;9.974;2023-03-14T22:09:24;100565.53;;;3.07;100.00
31062;BME280;17724;53.546;9.974;2023-03-14T22:13:25;100577.22;;;3.14;100.00
31062;BME280;17724;53.546;9.974;2023-03-14T22:17:26;100578.38;;;3.38;100.00
31062;BME280;17724;53.546;9.974;2023-03-14T22:21:26;100577.81;;;3.22;100.00
31062;BME280;17724;53.546;9.974;2023-03-14T22:25:27;100583.22;;;3.29;100.00
31062;BME280;17724;53.546;9.974;2023-03-14T22:29:27;100585.28;;;3.40;99.79
31062;BME280;17724;53.546;9.974;2023-03-14T22:33:28;100590.81;;;3.14;100.00